Time;durP1;ratioP1;P1;durP2;ratioP2;P2;SDS_P1;SDS_P2;PMS_P1;PMS_P2;Temp;Humidity;BMP_temperature;BMP_pressure;BME280_temperature;BME280_humidity;BME280_pressure;Samples;Min_cycle;Max_cycle;Signal;HPM_P1;HPM_P2
2022/07/14 00:01:10;;;;;;;13.77;2.50;;;21.60;83.10;;;;;;5077317;28;20025;-86
2022/07/14 00:03:36;;;;;;;9.80;2.60;;;21.60;83.40;;;;;;5062548;28;20090;-85
2022/07/14 00:06:01;;;;;;;13.07;3.13;;;21.50;83.60;;;;;;5047848;28;20021;-86
2022/07/14 00:08:27;;;;;;;12.40;2.92;;;21.50;83.90;;;;;;5072868;28;20029;-86
2022/07/14 00:10:53;;;;;;;15.57;3.50;;;21.50;83.80;;;;;;5089586;28;20033;-85
2022/07/14 00:13:19;;;;;;;11.48;2.95;;;21.40;84.10;;;;;;5053945;28;20119;-86
2022/07/14 00:15:44;;;;;;;10.85;2.83;;;21.40;84.40;;;;;;5071797;28;20028;-86
2022/07/14 00:18:10;;;;;;;11.88;2.55;;;21.30;84.40;;;;;;5089328;28;20035;-85
2022/07/14 00:20:36;;;;;;;9.25;2.70;;;21.30;84.40;;;;;;5056197;28;20029;-85
2022/07/14 00:23:01;;;;;;;9.68;2.30;;;21.30;84.60;;;;;;5071959;28;20104;-85
2022/07/14 00:25:30;;;;;;;12.35;2.63;;;21.20;84.70;;;;;;5035242;28;20021;-85
2022/07/14 00:27:56;;;;;;;11.38;2.67;;;21.20;85.00;;;;;;5062791;28;20102;-85
2022/07/14 00:30:21;;;;;;;11.57;2.80;;;21.20;85.20;;;;;;5052284;28;20021;-86
2022/07/14 00:32:47;;;;;;;10.02;2.58;;;21.10;85.30;;;;;;5072015;28;20021;-86
2022/07/14 00:35:13;;;;;;;13.98;3.40;;;21.10;85.50;;;;;;5039240;28;20017;-86
2022/07/14 00:37:39;;;;;;;12.90;2.47;;;21.00;85.60;;;;;;5038577;28;20021;-85
2022/07/14 00:40:06;;;;;;;15.93;2.33;;;21.00;86.60;;;;;;5052768;28;20108;-85
2022/07/14 00:42:40;;;;;;;10.40;2.50;;;21.00;86.30;;;;;;5051424;28;20032;-85
2022/07/14 00:45:11;;;;;;;14.10;2.83;;;20.90;86.60;;;;;;5068263;28;20035;-85
2022/07/14 00:47:36;;;;;;;;;;;21.00;87.00;;;;;;5068387;28;20031;-85
2022/07/14 00:50:03;;;;;;;13.95;2.75;;;20.90;87.30;;;;;;5083526;28;19939;-85
2022/07/14 00:52:29;;;;;;;10.15;2.35;;;20.90;87.20;;;;;;5049109;28;20095;-85
2022/07/14 00:54:56;;;;;;;10.27;2.47;;;20.80;87.40;;;;;;5065805;28;20029;-85
2022/07/14 00:57:22;;;;;;;12.63;2.63;;;20.80;87.70;;;;;;5048612;28;20040;-84
2022/07/14 00:59:49;;;;;;;12.65;2.83;;;20.80;88.00;;;;;;5048336;28;20119;-86
2022/07/14 01:02:15;;;;;;;15.43;2.58;;;20.80;88.10;;;;;;5047581;28;20029;-85
2022/07/14 01:04:41;;;;;;;13.35;2.88;;;20.70;88.30;;;;;;5047402;28;20021;-85
2022/07/14 01:07:07;;;;;;;9.80;2.60;;;20.70;88.60;;;;;;5078196;23;20067;-91
2022/07/14 01:09:33;;;;;;;14.65;2.72;;;20.70;89.60;;;;;;5065214;28;20020;-90
2022/07/14 01:12:00;;;;;;;14.55;2.75;;;20.70;91.00;;;;;;5040381;28;20021;-90
2022/07/14 01:14:25;;;;;;;10.52;2.78;;;20.70;90.70;;;;;;5057344;28;20025;-90
2022/07/14 01:16:55;;;;;;;12.75;2.92;;;20.60;90.50;;;;;;5053451;28;20107;-89
2022/07/14 01:19:22;;;;;;;14.20;2.78;;;20.60;90.40;;;;;;5055823;28;20021;-90
2022/07/14 01:21:52;;;;;;;10.63;2.50;;;20.60;90.40;;;;;;5085177;28;20025;-90
2022/07/14 01:24:18;;;;;;;14.07;2.97;;;20.60;90.50;;;;;;5057034;28;20501;-89
2022/07/14 01:26:50;;;;;;;10.98;2.05;;;20.50;90.50;;;;;;5076316;28;20020;-89
2022/07/14 01:29:16;;;;;;;17.05;3.08;;;20.50;90.50;;;;;;5058882;28;20035;-89
2022/07/14 01:31:42;;;;;;;12.38;2.53;;;20.50;90.60;;;;;;5075429;28;20020;-90
2022/07/14 01:34:08;;;;;;;11.65;2.53;;;20.40;90.50;;;;;;5093386;28;20111;-90
2022/07/14 01:36:34;;;;;;;9.95;2.58;;;20.40;90.50;;;;;;5075664;28;20063;-89
2022/07/14 01:39:00;;;;;;;13.30;3.22;;;20.40;90.60;;;;;;5075252;28;20504;-89
2022/07/14 01:41:27;;;;;;;10.43;2.38;;;20.40;90.60;;;;;;5077768;28;20588;-89
2022/07/14 01:43:53;;;;;;;14.77;2.97;;;20.30;90.50;;;;;;5079804;28;20024;-89
2022/07/14 01:46:18;;;;;;;16.15;3.08;;;20.30;90.60;;;;;;5097367;28;20349;-89
2022/07/14 01:48:44;;;;;;;14.50;2.58;;;20.30;90.60;;;;;;5059108;28;20031;-88
2022/07/14 01:51:10;;;;;;;11.02;3.03;;;20.30;90.80;;;;;;5060168;28;20029;-89
2022/07/14 01:53:35;;;;;;;17.33;2.90;;;20.20;90.80;;;;;;5059832;28;20021;-88
2022/07/14 01:56:01;;;;;;;14.95;2.28;;;20.20;90.80;;;;;;5071767;28;20372;-90
2022/07/14 01:58:27;;;;;;;12.88;2.78;;;20.20;90.80;;;;;;5079475;28;20036;-88
2022/07/14 02:03:37;;;;;;;12.73;3.08;;;20.10;90.80;;;;;;5068226;28;20093;-89
2022/07/14 02:06:03;;;;;;;12.02;2.60;;;20.10;90.90;;;;;;5097190;28;20567;-89
2022/07/14 02:08:29;;;;;;;7.85;1.98;;;20.00;90.90;;;;;;5083008;28;20028;-88
2022/07/14 02:13:42;;;;;;;9.05;2.50;;;20.00;91.30;;;;;;5089257;28;20031;-90
2022/07/14 02:16:08;;;;;;;10.35;2.38;;;19.90;91.30;;;;;;5093542;28;20012;-89
2022/07/14 02:18:34;;;;;;;9.52;2.45;;;19.90;91.30;;;;;;5113790;28;20017;-89
2022/07/14 02:21:00;;;;;;;10.32;2.40;;;19.80;91.20;;;;;;5100905;28;20052;-90
2022/07/14 02:23:25;;;;;;;11.15;3.28;;;19.80;91.20;;;;;;5079532;28;20042;-89
2022/07/14 02:25:51;;;;;;;10.95;2.53;;;19.80;91.10;;;;;;5087068;28;20032;-88
2022/07/14 02:28:17;;;;;;;15.40;2.78;;;19.70;91.00;;;;;;5050849;28;20074;-88
2022/07/14 02:30:44;;;;;;;12.00;2.65;;;19.70;91.10;;;;;;5062267;28;20025;-89
2022/07/14 02:33:10;;;;;;;11.82;2.20;;;19.70;91.10;;;;;;5070116;28;20047;-89
2022/07/14 02:35:36;;;;;;;10.55;2.67;;;19.60;91.20;;;;;;5091299;28;20452;-89
2022/07/14 02:38:02;;;;;;;8.32;2.30;;;19.60;91.30;;;;;;5071711;28;20033;-89
2022/07/14 02:40:28;;;;;;;9.07;2.33;;;19.50;91.30;;;;;;5065820;28;20036;-88
2022/07/14 02:42:54;;;;;;;11.07;3.08;;;19.50;91.30;;;;;;5071056;28;20119;-91
2022/07/14 02:45:19;;;;;;;12.02;2.60;;;19.40;91.30;;;;;;5069010;28;20020;-89
2022/07/14 02:47:45;;;;;;;11.27;2.63;;;19.40;91.40;;;;;;5061410;28;20035;-89
2022/07/14 02:50:11;;;;;;;11.80;2.72;;;19.40;91.50;;;;;;5077726;28;20157;-88
2022/07/14 02:52:37;;;;;;;10.45;2.67;;;19.30;91.60;;;;;;5077464;28;20023;-89
2022/07/14 02:55:04;;;;;;;13.25;2.80;;;19.30;91.60;;;;;;5074444;28;20020;-89
2022/07/14 02:57:29;;;;;;;10.88;2.53;;;19.30;91.80;;;;;;5050941;28;20143;-89
2022/07/14 02:59:55;;;;;;;10.48;2.80;;;19.20;91.80;;;;;;5076875;28;20118;-90
2022/07/14 03:02:21;;;;;;;12.93;2.95;;;19.10;91.90;;;;;;5066881;28;20183;-89
2022/07/14 03:04:47;;;;;;;16.10;4.07;;;19.10;92.00;;;;;;5060437;28;20024;-89
2022/07/14 03:07:13;;;;;;;15.40;3.88;;;19.10;92.00;;;;;;5071772;28;20044;-89
2022/07/14 03:09:38;;;;;;;17.83;5.28;;;19.10;92.00;;;;;;5094417;28;20032;-89
2022/07/14 03:12:04;;;;;;;16.83;4.57;;;19.00;92.10;;;;;;5077516;28;20028;-89
2022/07/14 03:14:30;;;;;;;14.18;4.38;;;19.00;92.10;;;;;;5060817;28;20056;-89
2022/07/14 03:16:55;;;;;;;11.98;4.32;;;19.00;92.10;;;;;;5073445;28;20029;-89
2022/07/14 03:19:21;;;;;;;12.05;3.28;;;18.90;92.10;;;;;;5091543;28;20035;-89
2022/07/14 03:21:47;;;;;;;13.35;3.28;;;18.90;92.20;;;;;;5081596;28;20060;-89
2022/07/14 03:24:13;;;;;;;9.77;3.22;;;18.80;92.20;;;;;;5060767;28;20073;-89
2022/07/14 03:26:39;;;;;;;11.20;2.85;;;18.80;92.20;;;;;;5077070;28;20035;-89
2022/07/14 03:29:07;;;;;;;10.60;3.22;;;18.80;92.30;;;;;;5094881;28;20028;-89
2022/07/14 03:31:33;;;;;;;16.48;3.22;;;18.70;92.40;;;;;;5100770;28;20477;-89
2022/07/14 03:33:59;;;;;;;9.57;2.78;;;18.70;92.40;;;;;;5089968;28;20055;-89
2022/07/14 03:36:25;;;;;;;18.75;2.88;;;18.70;92.50;;;;;;5077091;28;20052;-88
2022/07/14 03:38:51;;;;;;;14.98;2.70;;;18.60;92.60;;;;;;5094081;28;20040;-88
2022/07/14 03:41:16;;;;;;;11.48;2.97;;;18.60;92.60;;;;;;5104547;28;20526;-88
2022/07/14 03:43:43;;;;;;;13.60;3.17;;;18.50;92.70;;;;;;5085874;28;20035;-89
2022/07/14 03:46:09;;;;;;;12.13;3.05;;;18.50;92.70;;;;;;5094708;28;20090;-89
2022/07/14 03:48:35;;;;;;;15.43;2.85;;;18.50;92.90;;;;;;5094219;28;20028;-89
2022/07/14 03:51:01;;;;;;;8.88;2.28;;;18.40;93.00;;;;;;5073439;28;20017;-89
2022/07/14 03:53:29;;;;;;;13.45;3.10;;;18.40;93.10;;;;;;5082509;28;20468;-88
2022/07/14 03:55:55;;;;;;;12.68;2.60;;;18.40;93.20;;;;;;5093348;28;20039;-88
2022/07/14 03:58:21;;;;;;;12.57;3.13;;;18.30;93.30;;;;;;5093341;28;20042;-88
2022/07/14 04:00:46;;;;;;;10.10;2.60;;;18.30;93.40;;;;;;5093347;28;20458;-89
2022/07/14 04:03:12;;;;;;;11.52;2.70;;;18.30;93.60;;;;;;5072677;28;20028;-88
2022/07/14 04:05:38;;;;;;;12.07;2.67;;;18.30;93.80;;;;;;5073020;28;20020;-89
2022/07/14 04:08:04;;;;;;;10.98;2.67;;;18.30;93.80;;;;;;5056873;28;20541;-89
2022/07/14 04:10:29;;;;;;;12.30;2.55;;;18.20;93.90;;;;;;5056507;28;20027;-89
2022/07/14 04:12:56;;;;;;;13.48;2.30;;;18.20;94.10;;;;;;5071706;28;20075;-88
2022/07/14 04:15:23;;;;;;;11.18;2.35;;;18.20;94.40;;;;;;5069208;28;20021;-89
2022/07/14 04:17:49;;;;;;;8.95;2.75;;;18.20;94.20;;;;;;5089835;28;20074;-89
2022/07/14 04:20:16;;;;;;;11.27;2.67;;;18.20;94.40;;;;;;5061463;28;20035;-90
2022/07/14 04:22:42;;;;;;;8.20;2.63;;;18.20;94.60;;;;;;5094330;28;20035;-90
2022/07/14 04:25:12;;;;;;;9.48;2.75;;;18.20;94.80;;;;;;5057414;28;20025;-89
2022/07/14 04:27:38;;;;;;;9.82;2.22;;;18.10;94.90;;;;;;5060510;28;20043;-89
2022/07/14 04:30:04;;;;;;;11.27;2.60;;;18.10;95.00;;;;;;5094164;28;20032;-90
2022/07/14 04:32:30;;;;;;;12.07;2.83;;;18.10;95.10;;;;;;5078974;28;20051;-90
2022/07/14 04:34:56;;;;;;;11.63;2.80;;;18.10;95.20;;;;;;5071883;28;20023;-90
2022/07/14 04:37:22;;;;;;;11.18;2.83;;;18.10;95.40;;;;;;5072787;28;20028;-90
2022/07/14 04:39:47;;;;;;;10.48;3.28;;;18.10;95.60;;;;;;5066070;28;20039;-90
2022/07/14 04:42:14;;;;;;;9.45;2.30;;;18.10;95.80;;;;;;5044728;28;20029;-90
2022/07/14 04:44:41;;;;;;;14.35;2.83;;;18.10;96.00;;;;;;5059342;28;20021;-89
2022/07/14 04:47:07;;;;;;;13.07;2.53;;;18.10;96.20;;;;;;5079681;28;20102;-89
2022/07/14 04:52:19;;;;;;;14.82;2.42;;;18.10;96.50;;;;;;5073974;28;20509;-90
2022/07/14 04:54:45;;;;;;;13.43;2.65;;;18.10;96.50;;;;;;5039192;28;20024;-89
2022/07/14 04:57:12;;;;;;;9.65;2.25;;;18.10;96.60;;;;;;5078896;28;20118;-90
2022/07/14 04:59:37;;;;;;;10.80;2.63;;;18.10;96.80;;;;;;5075578;28;20531;-89
2022/07/14 05:02:04;;;;;;;10.32;2.30;;;18.10;96.90;;;;;;5056198;28;20067;-90
2022/07/14 05:04:30;;;;;;;12.68;3.17;;;18.10;97.00;;;;;;5073413;28;20024;-89
2022/07/14 05:06:57;;;;;;;12.48;2.45;;;18.10;97.10;;;;;;5068398;28;20175;-91
2022/07/14 05:09:30;;;;;;;9.82;2.20;;;18.10;97.20;;;;;;5074037;28;20037;-89
2022/07/14 05:11:55;;;;;;;9.48;3.30;;;18.10;97.30;;;;;;5108627;28;20024;-83
2022/07/14 05:14:21;;;;;;;8.45;2.08;;;18.10;97.40;;;;;;5092351;28;20471;-83
2022/07/14 05:16:48;;;;;;;10.82;2.78;;;18.10;97.50;;;;;;5093654;28;20040;-83
2022/07/14 05:19:16;;;;;;;12.48;2.63;;;18.10;97.70;;;;;;5092592;28;20028;-89
2022/07/14 05:21:42;;;;;;;10.05;2.45;;;18.10;97.80;;;;;;5086805;28;20519;-90
2022/07/14 05:24:07;;;;;;;11.60;2.83;;;18.10;98.00;;;;;;5091461;28;20020;-89
2022/07/14 05:26:34;;;;;;;12.70;2.35;;;18.10;98.20;;;;;;5079806;28;20035;-89
2022/07/14 05:29:00;;;;;;;10.80;2.65;;;18.20;98.30;;;;;;5079627;28;20093;-89
2022/07/14 05:31:25;;;;;;;12.23;2.63;;;18.20;98.40;;;;;;5081803;28;20028;-91
2022/07/14 05:33:51;;;;;;;11.93;2.95;;;18.20;98.50;;;;;;5094047;28;20016;-90
2022/07/14 05:36:17;;;;;;;12.43;2.47;;;18.20;98.60;;;;;;5096903;28;20356;-91
2022/07/14 05:38:43;;;;;;;8.05;2.28;;;18.20;98.70;;;;;;5079476;28;20038;-90
2022/07/14 05:41:08;;;;;;;13.45;2.55;;;18.20;98.70;;;;;;5091033;28;20058;-90
2022/07/14 05:43:34;;;;;;;9.45;2.92;;;18.30;98.80;;;;;;5089535;28;20429;-90
2022/07/14 05:46:08;;;;;;;15.60;2.25;;;18.30;98.70;;;;;;5079760;28;20593;-90
2022/07/14 05:48:38;;;;;;;8.57;2.28;;;18.30;98.70;;;;;;5098853;28;20445;-91
2022/07/14 05:51:22;;;;;;;13.48;2.90;;;18.30;98.80;;;;;;5091739;28;20044;-89
2022/07/14 05:53:48;;;;;;;12.77;2.17;;;18.30;98.80;;;;;;5114594;28;20031;-91
2022/07/14 05:56:17;;;;;;;10.18;2.83;;;18.40;98.90;;;;;;5116353;28;20016;-91
2022/07/14 05:58:44;;;;;;;10.23;2.88;;;18.40;99.00;;;;;;5097233;28;20029;-91
2022/07/14 06:01:11;;;;;;;8.63;2.25;;;18.40;99.00;;;;;;5119491;28;20032;-90
2022/07/14 06:03:37;;;;;;;13.10;2.53;;;18.40;99.00;;;;;;5116486;28;20040;-89
2022/07/14 06:06:04;;;;;;;10.60;2.40;;;18.40;99.10;;;;;;5116647;28;20075;-89
2022/07/14 06:08:30;;;;;;;7.43;2.13;;;18.50;99.10;;;;;;5112294;28;20020;-90
2022/07/14 06:10:57;;;;;;;13.70;2.60;;;18.50;99.00;;;;;;5099287;28;20028;-90
2022/07/14 06:13:27;;;;;;;10.85;2.65;;;18.50;98.90;;;;;;5109797;28;20020;-91
2022/07/14 06:15:55;;;;;;;11.80;2.55;;;18.50;98.70;;;;;;5099466;28;20101;-90
2022/07/14 06:18:21;;;;;;;9.32;2.50;;;18.50;98.70;;;;;;5102460;28;20022;-91
2022/07/14 06:20:48;;;;;;;10.95;2.13;;;18.60;98.70;;;;;;5099346;28;20460;-90
2022/07/14 06:23:14;;;;;;;14.00;2.78;;;18.60;98.60;;;;;;5064972;28;20020;-90
2022/07/14 06:25:40;;;;;;;12.05;2.53;;;18.60;98.40;;;;;;5084652;28;20046;-90
2022/07/14 06:28:07;;;;;;;10.55;2.95;;;18.60;98.20;;;;;;5066601;28;20043;-90
2022/07/14 06:30:33;;;;;;;8.30;2.22;;;18.60;98.20;;;;;;5078689;28;20035;-90
2022/07/14 06:32:59;;;;;;;9.27;2.20;;;18.70;98.30;;;;;;5075177;28;20127;-91
2022/07/14 06:35:25;;;;;;;10.07;2.20;;;18.70;98.50;;;;;;5096070;28;20051;-90
2022/07/14 06:37:55;;;;;;;7.72;2.13;;;18.80;98.30;;;;;;5081856;28;20028;-91
2022/07/14 06:40:21;;;;;;;9.97;2.17;;;18.80;98.10;;;;;;5106847;27;20043;-93
2022/07/14 06:42:47;;;;;;;8.50;2.28;;;18.80;98.00;;;;;;5096193;28;20111;-91
2022/07/14 06:45:13;;;;;;;15.85;2.33;;;18.90;98.20;;;;;;5077893;28;20043;-92
2022/07/14 06:47:39;;;;;;;9.82;2.00;;;18.90;98.10;;;;;;5085558;28;20047;-90
2022/07/14 06:50:06;;;;;;;12.88;2.50;;;19.00;98.10;;;;;;5095197;28;20062;-91
2022/07/14 06:52:33;;;;;;;10.50;2.00;;;19.00;98.20;;;;;;5116084;27;20012;-90
2022/07/14 06:54:59;;;;;;;10.82;1.90;;;19.10;98.00;;;;;;5088185;28;20084;-90
2022/07/14 06:57:25;;;;;;;8.07;1.85;;;19.10;97.70;;;;;;5090010;28;20382;-90
2022/07/14 06:59:51;;;;;;;12.10;1.92;;;19.20;97.80;;;;;;5074710;28;20031;-91
2022/07/14 07:02:19;;;;;;;11.48;2.10;;;19.20;97.80;;;;;;5089826;28;20036;-90
2022/07/14 07:04:46;;;;;;;7.30;1.75;;;19.30;97.70;;;;;;5077982;28;20032;-90
2022/07/14 07:07:12;;;;;;;11.13;2.25;;;19.30;97.60;;;;;;5094235;28;20131;-90
2022/07/14 07:09:38;;;;;;;7.32;2.00;;;19.40;97.60;;;;;;5090568;28;20115;-91
2022/07/14 07:12:04;;;;;;;9.07;1.63;;;19.40;97.50;;;;;;5099031;28;20029;-91
2022/07/14 07:14:30;;;;;;;8.02;1.98;;;19.50;97.10;;;;;;5093941;28;20013;-90
2022/07/14 07:16:56;;;;;;;7.80;1.88;;;19.50;97.00;;;;;;5075086;28;20114;-90
2022/07/14 07:19:22;;;;;;;11.23;2.60;;;19.60;96.90;;;;;;5097810;28;20028;-90
2022/07/14 07:21:48;;;;;;;8.18;1.77;;;19.60;96.90;;;;;;5071821;28;20530;-90
2022/07/14 07:24:14;;;;;;;9.05;1.70;;;19.70;96.70;;;;;;5093322;28;20020;-91
2022/07/14 07:26:41;;;;;;;13.50;2.53;;;19.80;96.40;;;;;;5076553;28;20506;-90
2022/07/14 07:29:07;;;;;;;10.18;2.58;;;19.80;96.20;;;;;;5077179;28;20023;-90
2022/07/14 07:31:33;;;;;;;10.13;2.38;;;19.90;96.20;;;;;;5056651;28;20123;-93
2022/07/14 07:34:00;;;;;;;10.98;2.03;;;19.90;96.00;;;;;;5075659;28;20545;-89
2022/07/14 07:36:26;;;;;;;10.43;2.35;;;20.00;95.60;;;;;;5093826;28;20107;-91
2022/07/14 07:38:51;;;;;;;7.40;1.35;;;20.10;95.50;;;;;;5092716;28;20063;-90
2022/07/14 07:41:17;;;;;;;5.88;1.50;;;20.10;95.40;;;;;;5093910;28;20035;-89
2022/07/14 07:43:43;;;;;;;6.75;1.55;;;20.20;95.30;;;;;;5087825;28;20376;-88
2022/07/14 07:46:08;;;;;;;4.57;1.45;;;20.30;95.20;;;;;;5094048;28;20024;-90
2022/07/14 07:48:34;;;;;;;11.63;2.35;;;20.30;95.20;;;;;;5076785;28;20077;-89
2022/07/14 07:51:01;;;;;;;6.43;1.88;;;20.40;95.20;;;;;;5093242;28;20468;-89
2022/07/14 07:53:26;;;;;;;9.65;1.75;;;20.50;94.90;;;;;;5076742;28;20024;-91
2022/07/14 07:55:53;;;;;;;9.38;1.92;;;20.60;94.40;;;;;;5094402;28;20099;-90
2022/07/14 07:58:20;;;;;;;7.75;1.60;;;20.60;94.00;;;;;;5093652;28;20020;-90
2022/07/14 08:00:47;;;;;;;5.60;1.63;;;20.70;93.80;;;;;;5093261;28;20027;-90
2022/07/14 08:03:13;;;;;;;6.82;1.58;;;20.70;93.80;;;;;;5076813;28;20157;-90
2022/07/14 08:05:42;;;;;;;5.82;1.45;;;20.80;93.90;;;;;;5096237;28;20028;-89
2022/07/14 08:08:08;;;;;;;9.38;2.03;;;20.90;93.90;;;;;;5063419;28;20019;-90
2022/07/14 08:10:34;;;;;;;9.10;1.73;;;20.90;93.90;;;;;;5079437;28;20035;-89
2022/07/14 08:12:59;;;;;;;8.80;1.80;;;21.10;94.00;;;;;;5080035;28;20022;-89
2022/07/14 08:15:25;;;;;;;10.05;1.50;;;21.10;93.50;;;;;;5079334;28;20019;-90
2022/07/14 08:17:52;;;;;;;7.32;1.88;;;21.20;93.20;;;;;;5075242;28;20016;-92
2022/07/14 08:20:19;;;;;;;8.05;1.65;;;21.20;92.60;;;;;;5096202;28;20016;-90
2022/07/14 08:22:45;;;;;;;7.95;1.60;;;21.30;92.30;;;;;;5078880;28;20020;-90
2022/07/14 08:25:11;;;;;;;7.95;1.55;;;21.40;92.50;;;;;;5076420;28;20024;-91
2022/07/14 08:27:36;;;;;;;4.80;1.58;;;21.40;92.60;;;;;;5059758;28;20459;-90
2022/07/14 08:30:03;;;;;;;8.00;1.88;;;21.50;92.60;;;;;;5093816;28;20020;-89
2022/07/14 08:32:37;;;;;;;9.50;1.95;;;21.60;92.30;;;;;;5095526;28;20103;-92
2022/07/14 08:35:05;;;;;;;9.20;1.83;;;21.60;92.10;;;;;;5074544;28;20032;-83
2022/07/14 08:37:31;;;;;;;8.32;1.77;;;21.70;92.40;;;;;;5087428;28;20031;-82
2022/07/14 08:39:57;;;;;;;7.75;1.95;;;21.80;91.90;;;;;;5066541;28;20122;-82
2022/07/14 08:42:23;;;;;;;6.90;1.70;;;21.90;91.90;;;;;;5057869;28;20550;-81
2022/07/14 08:44:51;;;;;;;5.97;1.75;;;21.90;91.80;;;;;;5092684;28;20055;-82
2022/07/14 08:47:17;;;;;;;6.07;1.70;;;22.00;91.70;;;;;;5074493;28;20059;-82
2022/07/14 08:49:43;;;;;;;8.88;2.13;;;22.10;91.60;;;;;;5107809;28;20020;-83
2022/07/14 08:52:10;;;;;;;7.43;1.98;;;22.20;91.50;;;;;;5058248;28;20529;-82
2022/07/14 08:54:38;;;;;;;9.63;2.28;;;22.20;91.60;;;;;;5060628;28;20016;-83
2022/07/14 08:57:04;;;;;;;6.97;1.67;;;22.30;91.50;;;;;;5058467;28;20031;-84
2022/07/14 08:59:29;;;;;;;8.55;2.75;;;22.40;91.50;;;;;;5069563;28;20024;-81
2022/07/14 09:01:57;;;;;;;6.72;1.77;;;22.50;91.30;;;;;;5083374;28;20040;-82
2022/07/14 09:04:23;;;;;;;5.57;1.38;;;22.50;90.90;;;;;;5074849;28;20086;-81
2022/07/14 09:06:54;;;;;;;5.13;1.33;;;22.60;90.70;;;;;;5062875;28;20508;-82
2022/07/14 09:09:31;;;;;;;5.68;1.73;;;22.60;90.30;;;;;;5086698;28;20077;-83
2022/07/14 09:12:07;;;;;;;8.27;1.90;;;22.70;90.10;;;;;;5071414;28;20064;-83
2022/07/14 09:17:25;;;;;;;8.10;1.92;;;22.80;89.70;;;;;;5090839;28;20043;-82
2022/07/14 09:20:10;;;;;;;7.50;1.73;;;22.90;88.80;;;;;;5088777;28;20021;-82
2022/07/14 09:22:41;;;;;;;8.27;1.65;;;22.90;87.20;;;;;;5091123;28;20131;-83
2022/07/14 09:25:15;;;;;;;8.45;2.65;;;22.90;86.10;;;;;;5091293;28;20027;-84
2022/07/14 09:27:41;;;;;;;5.32;1.67;;;23.00;86.40;;;;;;5108939;28;20024;-83
2022/07/14 09:30:10;;;;;;;5.55;1.77;;;23.00;85.60;;;;;;5091194;28;20032;-82
2022/07/14 09:32:51;;;;;;;4.88;1.20;;;23.10;84.90;;;;;;5055303;28;20116;-80
2022/07/14 09:35:26;;;;;;;5.00;1.70;;;23.10;84.40;;;;;;5088662;28;20020;-80
2022/07/14 09:37:54;;;;;;;5.97;1.60;;;23.20;84.40;;;;;;5111287;28;20028;-81
2022/07/14 09:40:30;;;;;;;6.60;1.85;;;23.20;84.10;;;;;;5113230;28;20012;-81
2022/07/14 09:42:58;;;;;;;4.35;1.33;;;23.30;83.80;;;;;;5129728;28;20031;-82
2022/07/14 09:45:44;;;;;;;5.10;1.83;;;23.30;83.20;;;;;;5130456;27;20025;-82
2022/07/14 09:48:17;;;;;;;6.60;1.38;;;23.40;83.30;;;;;;5113919;28;20031;-81
2022/07/14 09:51:00;;;;;;;4.70;1.10;;;23.50;83.70;;;;;;5106867;28;20525;-82
2022/07/14 09:53:33;;;;;;;8.30;2.08;;;23.60;83.70;;;;;;5093129;28;20039;-81
2022/07/14 09:56:03;;;;;;;5.72;1.40;;;23.60;83.10;;;;;;5090387;28;20020;-82
2022/07/14 09:58:31;;;;;;;5.47;1.40;;;23.60;83.10;;;;;;5090864;28;20027;-81
2022/07/14 10:01:12;;;;;;;7.13;1.73;;;23.70;81.90;;;;;;5090798;28;20442;-80
2022/07/14 10:03:42;;;;;;;;;;;23.70;81.60;;;;;;5094564;28;20081;-78
2022/07/14 10:06:09;;;;;;;4.40;1.30;;;23.80;81.10;;;;;;5094269;28;19923;-81
2022/07/14 10:08:39;;;;;;;4.10;1.10;;;23.80;81.10;;;;;;5094559;28;20016;-78
2022/07/14 10:11:05;;;;;;;3.45;1.45;;;23.90;80.80;;;;;;5094201;28;20383;-78
2022/07/14 10:13:31;;;;;;;4.43;1.20;;;23.90;81.00;;;;;;5094531;28;20016;-80
2022/07/14 10:15:58;;;;;;;3.53;1.23;;;24.10;81.20;;;;;;5093874;28;20421;-80
2022/07/14 10:18:26;;;;;;;3.70;1.50;;;24.10;80.40;;;;;;5095456;28;20051;-80
2022/07/14 10:20:54;;;;;;;6.50;1.33;;;24.20;80.60;;;;;;5095676;28;20032;-79
2022/07/14 10:23:22;;;;;;;5.82;1.45;;;24.30;80.60;;;;;;5094574;28;20094;-79
2022/07/14 10:25:56;;;;;;;4.93;1.23;;;24.40;80.20;;;;;;5081689;28;20482;-79
2022/07/14 10:28:22;;;;;;;5.07;1.10;;;24.40;79.60;;;;;;5094861;28;20051;-83
2022/07/14 10:31:09;;;;;;;4.90;1.17;;;24.50;79.00;;;;;;5088428;28;20024;-82
2022/07/14 10:33:37;;;;;;;3.33;1.25;;;24.60;78.20;;;;;;5073693;28;20052;-83
2022/07/14 10:36:09;;;;;;;3.17;0.98;;;24.60;76.90;;;;;;5078595;28;20494;-79
2022/07/14 10:39:16;;;;;;;4.75;1.20;;;24.60;75.70;;;;;;5093768;28;20020;-83
2022/07/14 10:42:00;;;;;;;3.33;1.00;;;24.70;75.00;;;;;;5101038;28;20116;-87
2022/07/14 10:44:29;;;;;;;3.22;0.90;;;24.80;75.40;;;;;;5094298;28;20024;-85
2022/07/14 10:47:12;;;;;;;3.92;1.20;;;24.80;75.00;;;;;;5095401;28;20020;-87
2022/07/14 10:50:01;;;;;;;3.00;1.27;;;24.90;74.60;;;;;;5080983;28;20166;-83
2022/07/14 10:52:29;;;;;;;3.88;1.33;;;25.00;74.20;;;;;;5111830;28;20486;-80
2022/07/14 10:55:32;;;;;;;4.95;1.83;;;25.00;73.80;;;;;;5095748;28;20024;-84
2022/07/14 10:58:04;;;;;;;3.28;1.02;;;25.10;73.70;;;;;;5093103;28;20012;-81
2022/07/14 11:00:46;;;;;;;4.53;1.10;;;25.20;73.40;;;;;;5093205;28;20046;-86
2022/07/14 11:03:19;;;;;;;3.50;1.40;;;25.30;73.20;;;;;;5096242;28;20503;-80
2022/07/14 11:06:03;;;;;;;6.75;1.42;;;25.40;73.10;;;;;;5082911;28;20041;-83
2022/07/14 11:08:30;;;;;;;4.75;1.50;;;25.50;72.90;;;;;;5076381;28;20020;-83
2022/07/14 11:11:00;;;;;;;8.23;1.63;;;25.50;72.10;;;;;;5056328;28;20032;-80
2022/07/14 11:13:26;;;;;;;5.25;1.45;;;25.60;71.70;;;;;;5073514;28;20058;-86
2022/07/14 11:15:57;;;;;;;2.72;1.30;;;25.60;70.90;;;;;;5059345;28;20418;-85
2022/07/14 11:18:26;;;;;;;4.05;1.15;;;25.60;70.60;;;;;;5078974;28;20467;-83
2022/07/14 11:20:55;;;;;;;4.10;1.33;;;25.70;70.40;;;;;;5094185;28;20020;-82
2022/07/14 11:23:32;;;;;;;9.80;2.58;;;25.80;70.50;;;;;;5075453;28;20055;-80
2022/07/14 11:26:02;;;;;;;5.45;0.90;;;25.90;70.20;;;;;;5075628;28;20028;-78
2022/07/14 11:28:31;;;;;;;3.17;1.15;;;25.90;69.70;;;;;;5094727;28;20074;-81
2022/07/14 11:31:16;;;;;;;6.13;1.60;;;26.00;70.00;;;;;;5093684;28;20472;-79
2022/07/14 11:36:38;;;;;;;3.65;1.25;;;26.10;69.10;;;;;;5088414;28;20035;-81
2022/07/14 11:39:16;;;;;;;3.70;1.02;;;26.10;69.00;;;;;;5066921;28;20368;-81
2022/07/14 11:41:51;;;;;;;4.57;1.27;;;26.10;69.40;;;;;;5072996;28;20337;-83
2022/07/14 11:44:41;;;;;;;8.40;1.33;;;26.20;70.00;;;;;;5060553;28;20017;-81
2022/07/14 11:47:28;;;;;;;13.57;2.27;;;26.20;69.80;;;;;;5071748;28;20826;-83
2022/07/14 11:49:59;;;;;;;5.03;1.52;;;26.20;70.00;;;;;;5067954;28;20034;-81
2022/07/14 11:52:30;;;;;;;3.40;1.23;;;26.30;69.60;;;;;;5075552;28;20023;-82
2022/07/14 11:55:00;;;;;;;5.63;1.40;;;26.30;68.80;;;;;;5075747;28;20043;-80
2022/07/14 11:57:26;;;;;;;2.75;1.30;;;26.30;67.70;;;;;;5079057;28;20017;-81
2022/07/14 11:59:53;;;;;;;4.78;1.10;;;26.30;67.20;;;;;;5075288;28;20028;-85
2022/07/14 12:02:20;;;;;;;1.75;0.90;;;26.30;66.20;;;;;;5075643;28;20085;-82
2022/07/14 12:04:56;;;;;;;3.38;1.55;;;26.30;66.10;;;;;;5058846;28;20095;-82
2022/07/14 12:07:24;;;;;;;5.32;1.27;;;26.30;65.80;;;;;;5093068;28;20048;-82
2022/07/14 12:09:51;;;;;;;4.70;1.15;;;26.30;65.90;;;;;;5074356;28;20031;-81
2022/07/14 12:12:18;;;;;;;4.68;1.13;;;26.40;65.30;;;;;;5066276;28;20028;-81
2022/07/14 12:14:52;;;;;;;3.20;0.90;;;26.40;64.40;;;;;;5060118;28;20025;-81
2022/07/14 12:17:19;;;;;;;6.05;1.63;;;26.40;63.90;;;;;;5073060;28;20053;-82
2022/07/14 12:19:46;;;;;;;4.90;1.40;;;26.50;63.70;;;;;;5055718;28;20032;-82
2022/07/14 12:22:12;;;;;;;3.05;1.17;;;26.50;63.70;;;;;;5069005;28;20032;-81
2022/07/14 12:24:38;;;;;;;3.67;1.30;;;26.50;63.90;;;;;;5056769;28;20285;-81
2022/07/14 12:27:09;;;;;;;6.40;1.27;;;26.50;64.00;;;;;;5057952;28;20420;-81
2022/07/14 12:29:44;;;;;;;5.25;1.70;;;26.60;63.90;;;;;;5074715;28;20052;-81
2022/07/14 12:32:26;;;;;;;4.57;1.67;;;26.60;63.10;;;;;;5094475;28;20058;-96
2022/07/14 12:34:52;;;;;;;3.85;1.00;;;26.70;62.50;;;;;;5062717;28;20040;-95
2022/07/14 12:37:20;;;;;;;5.43;1.23;;;26.70;61.70;;;;;;5074108;28;20145;-96
2022/07/14 12:39:46;;;;;;;3.50;1.20;;;26.70;61.40;;;;;;5088545;28;20028;-96
2022/07/14 12:42:16;;;;;;;6.35;1.33;;;26.80;61.50;;;;;;5075468;28;20043;-96
2022/07/14 12:45:04;;;;;;;7.90;1.40;;;26.80;61.30;;;;;;5102150;28;20028;-96
2022/07/14 12:47:50;;;;;;;4.80;1.40;;;26.90;61.50;;;;;;5072480;28;20019;-96
2022/07/14 12:50:21;;;;;;;9.48;2.03;;;26.90;60.80;;;;;;5075778;28;20031;-96
2022/07/14 12:52:57;;;;;;;3.35;1.15;;;26.90;59.90;;;;;;5076619;28;20031;-95
2022/07/14 12:55:38;;;;;;;6.50;1.40;;;27.00;59.90;;;;;;5101975;28;20389;-95
2022/07/14 12:58:09;;;;;;;5.35;1.40;;;27.00;60.50;;;;;;5078043;28;20024;-96
2022/07/14 13:00:39;;;;;;;2.80;1.20;;;27.10;60.40;;;;;;5071643;28;20032;-96
2022/07/14 13:03:14;;;;;;;4.68;1.23;;;27.10;60.00;;;;;;5061335;28;20083;-95